createdAt,value
2022-11-05T00:00:29.914Z,14.03
2022-11-05T00:03:20.624Z,14.00
2022-11-05T00:06:11.989Z,14.02
2022-11-05T00:09:03.414Z,13.94
2022-11-05T00:11:53.212Z,13.95
2022-11-05T00:14:49.038Z,14.03
2022-11-05T00:17:21.349Z,13.95
2022-11-05T00:19:53.725Z,13.96
2022-11-05T00:22:44.613Z,13.92
2022-11-05T00:25:19.188Z,13.90
2022-11-05T00:27:53.098Z,13.94
2022-11-05T00:30:26.955Z,13.97
2022-11-05T00:33:02.353Z,14.01
2022-11-05T00:35:34.704Z,13.77
2022-11-05T00:38:06.989Z,13.88
2022-11-05T00:40:40.079Z,13.83
2022-11-05T00:43:30.881Z,13.87
2022-11-05T00:46:03.252Z,13.76
2022-11-05T00:48:53.243Z,13.65
2022-11-05T00:51:25.615Z,13.69
2022-11-05T00:53:57.958Z,13.67
2022-11-05T00:56:30.966Z,13.76
2022-11-05T00:59:03.269Z,13.67
2022-11-05T01:01:35.750Z,13.72
2022-11-05T01:04:08.209Z,13.77
2022-11-05T01:06:40.521Z,13.64
2022-11-05T01:09:12.874Z,13.80
2022-11-05T01:11:45.873Z,13.83
2022-11-05T01:14:18.204Z,13.90
2022-11-05T01:16:50.523Z,13.90
2022-11-05T01:19:22.813Z,13.95
2022-11-05T01:21:55.187Z,14.01
2022-11-05T01:24:27.749Z,13.71
2022-11-05T01:27:00.787Z,13.70
2022-11-05T01:29:33.104Z,13.52
2022-11-05T01:32:05.580Z,13.46
2022-11-05T01:34:37.938Z,13.20
2022-11-05T01:37:10.342Z,13.01
2022-11-05T01:39:42.633Z,12.52
2022-11-05T01:42:21.138Z,12.48
2022-11-05T01:44:58.472Z,12.31
2022-11-05T01:47:41.356Z,12.04
2022-11-05T01:50:24.181Z,11.90
2022-11-05T01:53:02.374Z,12.05
2022-11-05T01:55:41.069Z,12.05
2022-11-05T01:58:18.097Z,11.90
2022-11-05T02:00:50.516Z,11.97
2022-11-05T02:03:23.613Z,11.99
2022-11-05T02:05:58.734Z,12.14
2022-11-05T02:08:45.784Z,12.12
2022-11-05T02:11:19.858Z,12.14
2022-11-05T02:13:52.913Z,12.19
2022-11-05T02:16:36.958Z,12.22
2022-11-05T02:19:49.266Z,12.25
2022-11-05T02:22:57.308Z,12.02
2022-11-05T02:25:57.260Z,12.16
2022-11-05T02:28:57.144Z,12.00
2022-11-05T02:31:38.779Z,11.82
2022-11-05T02:34:23.867Z,11.74
2022-11-05T02:37:01.957Z,11.57
2022-11-05T02:39:42.857Z,11.58
2022-11-05T02:42:29.686Z,11.75
2022-11-05T02:45:10.327Z,11.84
2022-11-05T02:47:47.331Z,11.77
2022-11-05T02:50:25.970Z,11.74
2022-11-05T02:53:01.963Z,11.80
2022-11-05T02:55:38.791Z,11.57
2022-11-05T02:58:11.535Z,11.58
2022-11-05T03:00:49.165Z,11.66
2022-11-05T03:03:34.333Z,11.65
2022-11-05T03:06:51.752Z,11.67
2022-11-05T03:09:42.991Z,11.60
2022-11-05T03:12:26.505Z,11.52
2022-11-05T03:15:10.974Z,11.41
2022-11-05T03:17:50.805Z,11.39
2022-11-05T03:20:27.932Z,11.43
2022-11-05T03:23:09.740Z,11.39
2022-11-05T03:25:48.291Z,11.36
2022-11-05T03:28:25.344Z,11.24
2022-11-05T03:30:58.704Z,11.27
2022-11-05T03:33:35.037Z,11.30
2022-11-05T03:36:15.451Z,11.28
2022-11-05T03:38:52.514Z,11.32
2022-11-05T03:41:26.530Z,11.30
2022-11-05T03:44:03.149Z,11.27
2022-11-05T03:46:41.812Z,11.31
2022-11-05T03:49:21.187Z,11.30
2022-11-05T03:51:58.609Z,11.29
2022-11-05T03:54:32.626Z,11.24
2022-11-05T03:57:08.788Z,11.19
2022-11-05T03:59:44.644Z,11.21
2022-11-05T04:02:19.455Z,11.17
2022-11-05T04:04:52.668Z,11.14
2022-11-05T04:07:44.000Z,11.12
2022-11-05T04:10:34.516Z,11.07
2022-11-05T04:13:24.398Z,10.98
2022-11-05T04:16:17.628Z,10.95
2022-11-05T04:18:49.970Z,10.90
2022-11-05T04:21:40.300Z,10.80
2022-11-05T04:24:14.022Z,10.82
2022-11-05T04:26:46.778Z,10.80
2022-11-05T04:29:36.950Z,10.74
2022-11-05T04:32:09.317Z,10.71
2022-11-05T04:34:41.738Z,10.70
2022-11-05T04:37:14.086Z,10.61
2022-11-05T04:39:47.076Z,10.64
2022-11-05T04:42:19.472Z,10.68
2022-11-05T04:44:51.835Z,10.73
2022-11-05T04:47:24.193Z,10.69
2022-11-05T04:49:56.573Z,10.72
2022-11-05T04:52:28.861Z,10.76
2022-11-05T04:55:01.908Z,10.78
2022-11-05T04:57:34.800Z,10.86
2022-11-05T05:00:08.957Z,10.83
2022-11-05T05:02:41.502Z,10.77
2022-11-05T05:05:14.115Z,10.78
2022-11-05T05:07:46.458Z,10.80
2022-11-05T05:12:58.936Z,10.82
2022-11-05T05:15:31.328Z,10.85
2022-11-05T05:18:03.929Z,10.84
2022-11-05T05:20:54.305Z,10.82
2022-11-05T05:23:26.784Z,10.83
2022-11-05T05:25:59.803Z,10.83
2022-11-05T05:28:32.142Z,10.81
2022-11-05T05:31:04.509Z,10.82
2022-11-05T05:33:36.886Z,10.87
2022-11-05T05:36:11.524Z,10.87
2022-11-05T05:38:44.028Z,10.89
2022-11-05T05:41:17.323Z,10.87
2022-11-05T05:43:50.232Z,10.95
2022-11-05T05:46:22.571Z,10.94
2022-11-05T05:48:54.909Z,10.90
2022-11-05T05:51:27.200Z,10.95
2022-11-05T05:53:59.525Z,10.93
2022-11-05T05:56:32.550Z,10.89
2022-11-05T05:59:05.873Z,10.96
2022-11-05T06:01:38.403Z,11.05
2022-11-05T06:04:10.944Z,11.08
2022-11-05T06:06:46.146Z,11.07
2022-11-05T06:09:18.581Z,11.10
2022-11-05T06:11:51.603Z,11.15
2022-11-05T06:14:24.006Z,11.22
2022-11-05T06:16:56.361Z,11.27
2022-11-05T06:19:28.756Z,11.34
2022-11-05T06:22:01.048Z,11.38
2022-11-05T06:24:33.416Z,11.49
2022-11-05T06:27:06.397Z,11.59
2022-11-05T06:29:38.765Z,11.63
2022-11-05T06:32:11.173Z,11.75
2022-11-05T06:34:43.532Z,11.77
2022-11-05T06:37:16.134Z,11.85
2022-11-05T06:39:48.602Z,11.77
2022-11-05T06:42:21.602Z,11.84
2022-11-05T06:44:53.976Z,11.90
2022-11-05T06:47:26.346Z,12.04
2022-11-05T06:49:58.725Z,11.88
2022-11-05T06:52:31.034Z,12.11
2022-11-05T06:55:03.865Z,12.07
2022-11-05T06:57:38.396Z,12.13
2022-11-05T07:00:11.476Z,12.32
2022-11-05T07:02:44.414Z,12.34
2022-11-05T07:05:17.136Z,12.60
2022-11-05T07:07:49.492Z,12.71
2022-11-05T07:10:21.894Z,12.67
2022-11-05T07:12:54.897Z,12.80
2022-11-05T07:15:27.226Z,12.92
2022-11-05T07:18:00.460Z,13.11
2022-11-05T07:20:34.444Z,13.09
2022-11-05T07:23:11.030Z,13.24
2022-11-05T07:25:43.688Z,13.39
2022-11-05T07:28:16.661Z,13.56
2022-11-05T07:30:48.974Z,13.90
2022-11-05T07:33:21.318Z,14.04
2022-11-05T07:35:55.735Z,14.11
2022-11-05T07:38:28.123Z,14.42
2022-11-05T07:41:00.553Z,14.79
2022-11-05T07:43:33.643Z,15.01
2022-11-05T07:46:09.814Z,15.15
2022-11-05T07:48:45.077Z,15.35
2022-11-05T07:51:17.409Z,15.38
2022-11-05T07:53:49.740Z,15.51
2022-11-05T07:56:22.359Z,15.67
2022-11-05T07:58:55.572Z,15.68
2022-11-05T08:01:28.039Z,15.75
2022-11-05T08:04:00.468Z,15.59
2022-11-05T08:06:32.893Z,15.65
2022-11-05T08:09:05.349Z,15.62
2022-11-05T08:11:37.708Z,15.67
2022-11-05T08:14:10.679Z,16.00
2022-11-05T08:16:43.129Z,16.20
2022-11-05T08:19:15.531Z,16.47
2022-11-05T08:21:47.964Z,16.82
2022-11-05T08:24:20.286Z,16.78
2022-11-05T08:26:53.078Z,16.91
2022-11-05T08:29:26.097Z,17.13
2022-11-05T08:31:58.525Z,17.38
2022-11-05T08:34:30.885Z,17.57
2022-11-05T08:37:03.548Z,17.68
2022-11-05T08:39:35.950Z,17.61
2022-11-05T08:42:08.333Z,17.49
2022-11-05T08:44:41.430Z,17.44
2022-11-05T08:47:13.814Z,17.19
2022-11-05T08:49:46.149Z,17.14
2022-11-05T08:52:18.510Z,17.07
2022-11-05T08:54:50.879Z,17.03
2022-11-05T08:57:23.277Z,17.05
2022-11-05T08:59:56.326Z,17.33
2022-11-05T09:02:28.794Z,17.30
2022-11-05T09:05:01.200Z,17.25
2022-11-05T09:07:33.668Z,17.40
2022-11-05T09:10:06.670Z,17.22
2022-11-05T09:12:39.069Z,16.91
2022-11-05T09:15:12.097Z,16.74
2022-11-05T09:17:44.529Z,16.54
2022-11-05T09:20:16.881Z,16.71
2022-11-05T09:22:49.259Z,16.50
2022-11-05T09:25:21.648Z,16.78
2022-11-05T09:27:54.041Z,17.03
2022-11-05T09:30:33.777Z,17.09
2022-11-05T09:33:06.189Z,17.10
2022-11-05T09:35:39.412Z,17.26
2022-11-05T09:38:12.334Z,17.40
2022-11-05T09:40:52.952Z,17.43
2022-11-05T09:43:31.880Z,17.38
2022-11-05T09:46:11.477Z,17.16
2022-11-05T09:48:47.758Z,17.16
2022-11-05T09:51:23.882Z,17.25
2022-11-05T09:53:59.174Z,17.16
2022-11-05T09:56:36.178Z,17.12
2022-11-05T09:59:16.809Z,17.11
2022-11-05T10:01:51.701Z,17.00
2022-11-05T10:04:25.769Z,17.04
2022-11-05T10:07:00.266Z,17.31
2022-11-05T10:09:37.616Z,17.08
2022-11-05T10:12:15.568Z,17.20
2022-11-05T10:14:55.718Z,17.23
2022-11-05T10:17:37.884Z,17.08
2022-11-05T10:20:19.557Z,17.02
2022-11-05T10:22:56.328Z,17.06
2022-11-05T10:25:31.724Z,17.11
2022-11-05T10:28:05.797Z,17.14
2022-11-05T10:30:38.349Z,17.26
2022-11-05T10:33:14.864Z,17.13
2022-11-05T10:35:50.660Z,16.96
2022-11-05T10:38:23.229Z,17.04
2022-11-05T10:41:08.609Z,17.03
2022-11-05T10:43:47.497Z,16.90
2022-11-05T10:46:29.732Z,17.03
2022-11-05T10:49:18.035Z,17.18
2022-11-05T10:51:56.058Z,17.27
2022-11-05T10:54:33.292Z,17.28
2022-11-05T10:57:27.281Z,17.37
2022-11-05T11:00:21.500Z,17.44
2022-11-05T11:02:57.883Z,17.30
2022-11-05T11:05:35.232Z,17.24
2022-11-05T11:08:22.514Z,17.34
2022-11-05T11:10:57.285Z,17.34
2022-11-05T11:13:49.748Z,17.26
2022-11-05T11:16:23.751Z,17.43
2022-11-05T11:18:58.544Z,17.42
2022-11-05T11:21:32.080Z,17.55
2022-11-05T11:24:06.346Z,17.36
2022-11-05T11:26:40.042Z,17.31
2022-11-05T11:29:16.142Z,17.26
2022-11-05T11:31:48.613Z,17.36
2022-11-05T11:34:28.617Z,17.51
2022-11-05T11:37:07.152Z,17.44
2022-11-05T11:39:42.468Z,17.71
2022-11-05T11:42:22.423Z,17.84
2022-11-05T11:44:58.426Z,17.50
2022-11-05T11:47:32.874Z,17.25
2022-11-05T11:50:05.742Z,17.57
2022-11-05T11:52:38.738Z,17.74
2022-11-05T11:55:21.863Z,17.89
2022-11-05T11:58:05.918Z,17.83
2022-11-05T12:00:47.949Z,17.90
2022-11-05T12:03:31.472Z,18.04
2022-11-05T12:06:23.805Z,18.01
2022-11-05T12:09:06.974Z,17.51
2022-11-05T12:11:46.570Z,17.50
2022-11-05T12:14:29.941Z,17.67
2022-11-05T12:17:16.429Z,17.41
2022-11-05T12:20:09.161Z,17.26
2022-11-05T12:23:01.352Z,17.10
2022-11-05T12:25:38.982Z,17.01
2022-11-05T12:28:25.738Z,17.17
2022-11-05T12:31:09.549Z,16.99
2022-11-05T12:33:50.945Z,16.87
2022-11-05T12:36:39.343Z,17.00
2022-11-05T12:39:53.812Z,17.00
2022-11-05T12:42:40.980Z,17.11
2022-11-05T12:45:27.040Z,17.11
2022-11-05T12:48:10.595Z,17.10
2022-11-05T12:50:45.472Z,17.14
2022-11-05T12:53:34.309Z,16.97
2022-11-05T12:56:13.895Z,16.53
2022-11-05T12:58:48.461Z,16.60
2022-11-05T13:01:26.642Z,16.78
2022-11-05T13:04:05.938Z,16.79
2022-11-05T13:06:41.196Z,16.73
2022-11-05T13:09:18.792Z,16.80
2022-11-05T13:11:54.329Z,16.80
2022-11-05T13:14:30.979Z,16.73
2022-11-05T13:17:07.373Z,16.68
2022-11-05T13:19:45.335Z,16.53
2022-11-05T13:22:28.471Z,16.45
2022-11-05T13:25:05.638Z,16.36
2022-11-05T13:27:47.320Z,16.53
2022-11-05T13:30:25.830Z,16.43
2022-11-05T13:33:02.470Z,16.44
2022-11-05T13:35:41.247Z,16.44
2022-11-05T13:38:38.568Z,16.41
2022-11-05T13:41:25.557Z,16.51
2022-11-05T13:44:12.733Z,16.60
2022-11-05T13:47:11.738Z,16.67
2022-11-05T13:49:58.775Z,16.69
2022-11-05T13:52:56.003Z,16.73
2022-11-05T13:55:52.224Z,16.68
2022-11-05T13:59:00.088Z,16.62
2022-11-05T14:01:43.927Z,16.59
2022-11-05T14:04:27.840Z,16.54
2022-11-05T14:07:09.792Z,16.39
2022-11-05T14:09:43.700Z,16.33
2022-11-05T14:12:24.055Z,16.28
2022-11-05T14:15:02.667Z,16.14
2022-11-05T14:17:55.745Z,16.26
2022-11-05T14:20:59.547Z,16.31
2022-11-05T14:23:48.280Z,16.29
2022-11-05T14:26:23.100Z,16.31
2022-11-05T14:29:37.233Z,16.35
2022-11-05T14:32:25.682Z,16.43
2022-11-05T14:35:03.260Z,16.48
2022-11-05T14:37:40.912Z,16.45
2022-11-05T14:40:46.188Z,16.47
2022-11-05T14:43:22.145Z,16.44
2022-11-05T14:45:57.628Z,16.47
2022-11-05T14:48:37.715Z,16.43
2022-11-05T14:51:26.362Z,16.37
2022-11-05T14:54:03.336Z,16.29
2022-11-05T14:56:43.072Z,16.21
2022-11-05T14:59:50.413Z,16.15
2022-11-05T15:02:26.580Z,16.07
2022-11-05T15:05:37.746Z,16.01
2022-11-05T15:08:53.790Z,15.95
2022-11-05T15:11:32.173Z,15.86
2022-11-05T15:14:07.384Z,15.74
2022-11-05T15:16:43.165Z,15.66
2022-11-05T15:19:20.124Z,15.56
2022-11-05T15:21:56.732Z,15.50
2022-11-05T15:24:30.732Z,15.42
2022-11-05T15:27:11.400Z,15.36
2022-11-05T15:29:43.901Z,15.28
2022-11-05T15:32:18.048Z,15.15
2022-11-05T15:34:52.073Z,15.17
2022-11-05T15:37:25.994Z,15.04
2022-11-05T15:39:58.436Z,14.97
2022-11-05T15:42:31.495Z,14.86
2022-11-05T15:45:04.733Z,14.77
2022-11-05T15:47:37.239Z,14.63
2022-11-05T15:50:15.130Z,14.45
2022-11-05T15:52:49.514Z,14.47
2022-11-05T15:55:23.793Z,14.40
2022-11-05T15:57:59.852Z,14.34
2022-11-05T16:00:46.993Z,14.31
2022-11-05T16:03:27.587Z,14.28
2022-11-05T16:06:01.493Z,14.19
2022-11-05T16:08:34.053Z,14.12
2022-11-05T16:11:06.452Z,14.03
2022-11-05T16:13:41.241Z,13.85
2022-11-05T16:16:25.679Z,13.85
2022-11-05T16:18:58.132Z,13.71
2022-11-05T16:21:30.588Z,13.68
2022-11-05T16:24:03.216Z,13.62
2022-11-05T16:29:33.920Z,13.48
2022-11-05T16:32:15.798Z,13.29
2022-11-05T16:34:50.628Z,13.30
2022-11-05T16:37:25.740Z,13.25
2022-11-05T16:39:58.127Z,13.12
2022-11-05T16:42:39.088Z,12.99
2022-11-05T16:45:14.094Z,12.95
2022-11-05T16:47:46.917Z,12.88
2022-11-05T16:50:23.424Z,12.86
2022-11-05T16:52:55.788Z,12.87
2022-11-05T16:55:28.630Z,12.88
2022-11-05T16:58:01.099Z,12.88
2022-11-05T17:00:34.310Z,12.56
2022-11-05T17:03:06.710Z,12.45
2022-11-05T17:05:39.122Z,12.39
2022-11-05T17:08:11.948Z,12.40
2022-11-05T17:10:44.642Z,12.37
2022-11-05T17:13:18.297Z,12.23
2022-11-05T17:15:51.678Z,12.29
2022-11-05T17:18:24.595Z,12.26
2022-11-05T17:20:57.237Z,12.29
2022-11-05T17:23:31.859Z,12.31
2022-11-05T17:26:06.733Z,12.33
2022-11-05T17:28:40.279Z,12.28
2022-11-05T17:31:13.724Z,12.19
2022-11-05T17:33:46.088Z,12.07
2022-11-05T17:36:18.424Z,11.95
2022-11-05T17:38:51.360Z,11.92
2022-11-05T17:41:24.499Z,11.92
2022-11-05T17:43:57.666Z,11.86
2022-11-05T17:46:30.708Z,11.85
2022-11-05T17:49:03.272Z,11.76
2022-11-05T17:51:35.644Z,11.71
2022-11-05T17:54:08.102Z,11.68
2022-11-05T17:56:44.727Z,11.52
2022-11-05T17:59:17.378Z,11.52
2022-11-05T18:01:50.516Z,11.53
2022-11-05T18:04:23.103Z,11.43
2022-11-05T18:06:55.414Z,11.35
2022-11-05T18:09:27.924Z,11.41
2022-11-05T18:12:00.305Z,11.44
2022-11-05T18:14:32.825Z,11.50
2022-11-05T18:17:05.864Z,11.43
2022-11-05T18:19:39.049Z,11.45
2022-11-05T18:22:11.484Z,11.39
2022-11-05T18:24:43.891Z,11.41
2022-11-05T18:27:16.230Z,11.29
2022-11-05T18:29:48.670Z,11.26
2022-11-05T18:32:21.733Z,11.14
2022-11-05T18:34:54.125Z,11.22
2022-11-05T18:37:26.657Z,11.15
2022-11-05T18:39:58.996Z,11.11
2022-11-05T18:42:31.425Z,11.12
2022-11-05T18:45:05.331Z,11.06
2022-11-05T18:47:38.391Z,10.96
2022-11-05T18:50:10.889Z,10.94
2022-11-05T18:52:43.717Z,10.93
2022-11-05T18:55:16.177Z,10.92
2022-11-05T18:57:48.602Z,10.90
2022-11-05T19:00:20.992Z,10.80
2022-11-05T19:02:54.593Z,10.82
2022-11-05T19:05:29.704Z,10.80
2022-11-05T19:08:02.559Z,10.78
2022-11-05T19:10:34.993Z,10.76
2022-11-05T19:13:07.341Z,10.74
2022-11-05T19:15:41.769Z,10.76
2022-11-05T19:18:15.014Z,10.76
2022-11-05T19:20:47.518Z,10.70
2022-11-05T19:23:19.869Z,10.72
2022-11-05T19:25:52.278Z,10.65
2022-11-05T19:28:24.653Z,10.67
2022-11-05T19:30:57.050Z,10.74
2022-11-05T19:33:30.437Z,10.61
2022-11-05T19:36:05.072Z,10.65
2022-11-05T19:38:38.058Z,10.60
2022-11-05T19:41:13.310Z,10.47
2022-11-05T19:43:46.122Z,10.49
2022-11-05T19:46:20.386Z,10.44
2022-11-05T19:48:53.829Z,10.44
2022-11-05T19:51:28.996Z,10.39
2022-11-05T19:54:02.628Z,10.37
2022-11-05T19:56:37.638Z,10.43
2022-11-05T19:59:11.452Z,10.40
2022-11-05T20:01:44.110Z,10.43
2022-11-05T20:04:17.321Z,10.46
2022-11-05T20:06:49.754Z,10.42
2022-11-05T20:09:23.146Z,10.31
2022-11-05T20:11:56.518Z,10.25
2022-11-05T20:14:29.377Z,10.17
2022-11-05T20:17:01.759Z,10.16
2022-11-05T20:19:34.850Z,10.11
2022-11-05T20:22:07.226Z,10.02
2022-11-05T20:24:39.553Z,10.08
2022-11-05T20:27:11.923Z,10.04
2022-11-05T20:29:44.277Z,10.04
2022-11-05T20:32:16.664Z,9.94
2022-11-05T20:34:49.761Z,9.99
2022-11-05T20:37:22.502Z,10.01
2022-11-05T20:39:55.050Z,10.04
2022-11-05T20:42:27.422Z,10.10
2022-11-05T20:44:59.986Z,10.13
2022-11-05T20:47:32.515Z,10.13
2022-11-05T20:50:07.519Z,10.08
2022-11-05T20:52:40.324Z,9.98
2022-11-05T20:55:12.637Z,10.03
2022-11-05T20:57:44.977Z,10.01
2022-11-05T21:00:17.852Z,9.99
2022-11-05T21:02:50.447Z,9.98
2022-11-05T21:05:23.609Z,10.00
2022-11-05T21:07:56.561Z,9.90
2022-11-05T21:10:29.464Z,10.00
2022-11-05T21:13:01.826Z,9.78
2022-11-05T21:15:34.200Z,9.52
2022-11-05T21:18:06.649Z,9.50
2022-11-05T21:20:39.880Z,9.59
2022-11-05T21:23:13.274Z,9.62
2022-11-05T21:25:46.002Z,9.69
2022-11-05T21:28:18.470Z,9.73
2022-11-05T21:30:50.810Z,9.74
2022-11-05T21:33:23.218Z,9.60
2022-11-05T21:35:56.698Z,9.56
2022-11-05T21:38:29.165Z,9.60
2022-11-05T21:41:02.665Z,9.60
2022-11-05T21:43:35.159Z,9.54
2022-11-05T21:46:07.493Z,9.56
2022-11-05T21:48:40.025Z,9.48
2022-11-05T21:51:31.653Z,9.42
2022-11-05T21:54:22.443Z,9.37
2022-11-05T21:57:13.416Z,9.33
2022-11-05T21:59:48.911Z,9.15
2022-11-05T22:02:23.205Z,9.19
2022-11-05T22:04:59.133Z,9.17
2022-11-05T22:07:34.644Z,9.33
2022-11-05T22:10:14.643Z,9.27
2022-11-05T22:12:48.366Z,9.34
2022-11-05T22:15:20.770Z,9.36
2022-11-05T22:17:53.131Z,9.38
2022-11-05T22:20:25.572Z,9.40
2022-11-05T22:22:58.611Z,9.43
2022-11-05T22:25:31.033Z,9.44
2022-11-05T22:28:03.663Z,9.23
2022-11-05T22:30:36.237Z,9.08
2022-11-05T22:33:08.531Z,9.22
2022-11-05T22:35:40.962Z,9.30
2022-11-05T22:38:14.290Z,9.35
2022-11-05T22:40:46.863Z,9.33
2022-11-05T22:43:19.225Z,9.12
2022-11-05T22:45:51.596Z,9.06
2022-11-05T22:48:23.926Z,9.19
2022-11-05T22:51:01.676Z,9.19
2022-11-05T22:53:36.445Z,9.27
2022-11-05T22:56:12.563Z,9.21
2022-11-05T22:58:45.273Z,9.11
2022-11-05T23:01:18.671Z,9.20
2022-11-05T23:03:52.969Z,9.27
2022-11-05T23:06:45.748Z,9.24
2022-11-05T23:09:38.685Z,9.34
2022-11-05T23:12:21.505Z,9.29
2022-11-05T23:14:55.648Z,9.34
2022-11-05T23:17:46.954Z,9.40
2022-11-05T23:20:39.103Z,9.42
2022-11-05T23:23:30.757Z,9.44
2022-11-05T23:26:24.321Z,9.37
2022-11-05T23:28:56.685Z,9.38
2022-11-05T23:31:47.110Z,9.34
2022-11-05T23:34:19.468Z,9.34
2022-11-05T23:37:11.877Z,9.34
2022-11-05T23:39:44.302Z,9.40
2022-11-05T23:42:35.333Z,9.48
2022-11-05T23:45:27.515Z,9.41
2022-11-05T23:48:18.443Z,9.45
2022-11-05T23:50:56.677Z,9.48
2022-11-05T23:53:30.713Z,9.44
2022-11-05T23:56:06.740Z,9.49
2022-11-05T23:58:41.273Z,9.49
